createdAt,value
2024-02-22T00:01:14.665Z,7.57
2024-02-22T00:03:42.572Z,8.07
2024-02-22T00:06:10.988Z,6.95
2024-02-22T00:08:40.333Z,9.15
2024-02-22T00:11:10.038Z,9.65
2024-02-22T00:13:38.341Z,7.63
2024-02-22T00:16:09.741Z,8.40
2024-02-22T00:18:38.220Z,11.43
2024-02-22T00:21:07.070Z,6.55
2024-02-22T00:23:35.537Z,6.03
2024-02-22T00:26:03.983Z,7.18
2024-02-22T00:28:33.616Z,5.22
2024-02-22T00:31:02.659Z,5.90
2024-02-22T00:33:31.219Z,5.65
2024-02-22T00:35:59.311Z,10.52
2024-02-22T00:38:27.660Z,5.97
2024-02-22T00:40:55.986Z,10.13
2024-02-22T00:43:23.839Z,10.32
2024-02-22T00:45:53.215Z,7.20
2024-02-22T00:48:21.470Z,4.53
2024-02-22T00:50:50.116Z,4.10
2024-02-22T00:53:18.531Z,6.97
2024-02-22T00:55:46.924Z,10.40
2024-02-22T00:58:14.992Z,6.22
2024-02-22T01:00:45.412Z,8.52
2024-02-22T01:03:15.919Z,10.73
2024-02-22T01:05:44.149Z,7.30
2024-02-22T01:08:12.199Z,6.43
2024-02-22T01:10:40.102Z,5.53
2024-02-22T01:13:08.041Z,13.43
2024-02-22T01:15:37.444Z,7.28
2024-02-22T01:18:06.448Z,5.22
2024-02-22T01:20:36.245Z,3.83
2024-02-22T01:23:07.830Z,5.25
2024-02-22T01:25:36.074Z,4.70
2024-02-22T01:28:04.741Z,6.43
2024-02-22T01:30:35.104Z,3.95
2024-02-22T01:33:03.701Z,4.03
2024-02-22T01:35:32.230Z,6.65
2024-02-22T01:38:02.157Z,4.47
2024-02-22T01:40:31.847Z,5.00
2024-02-22T01:43:00.841Z,6.30
2024-02-22T01:45:29.408Z,7.50
2024-02-22T01:47:58.038Z,4.35
2024-02-22T01:50:26.576Z,6.80
2024-02-22T01:52:55.127Z,5.63
2024-02-22T01:55:26.053Z,4.97
2024-02-22T01:57:55.185Z,4.28
2024-02-22T02:00:25.000Z,4.03
2024-02-22T02:02:53.704Z,4.68
2024-02-22T02:05:22.314Z,6.47
2024-02-22T02:07:51.153Z,2.80
2024-02-22T02:10:19.738Z,5.28
2024-02-22T02:12:50.078Z,4.78
2024-02-22T02:15:18.394Z,5.60
2024-02-22T02:17:46.565Z,1.23
2024-02-22T02:20:15.792Z,3.63
2024-02-22T02:23:10.377Z,6.28
2024-02-22T02:25:40.699Z,4.88
2024-02-22T02:28:09.007Z,3.55
2024-02-22T02:30:38.016Z,5.70
2024-02-22T02:33:07.170Z,5.25
2024-02-22T02:35:39.193Z,2.88
2024-02-22T02:38:11.664Z,3.75
2024-02-22T02:40:41.891Z,3.22
2024-02-22T02:43:10.500Z,3.28
2024-02-22T02:45:39.102Z,4.65
2024-02-22T02:48:08.261Z,4.43
2024-02-22T02:50:36.346Z,2.97
2024-02-22T02:53:07.724Z,6.93
2024-02-22T02:55:36.825Z,3.22
2024-02-22T02:58:09.685Z,3.42
2024-02-22T03:00:38.033Z,3.45
2024-02-22T03:03:06.483Z,5.43
2024-02-22T03:05:35.130Z,4.15
2024-02-22T03:08:03.724Z,4.43
2024-02-22T03:10:32.112Z,5.18
2024-02-22T03:13:03.714Z,7.45
2024-02-22T03:15:37.073Z,6.70
2024-02-22T03:18:07.443Z,4.65
2024-02-22T03:20:36.899Z,4.57
2024-02-22T03:23:05.224Z,2.03
2024-02-22T03:25:34.082Z,3.13
2024-02-22T03:28:02.048Z,3.55
2024-02-22T03:30:30.084Z,2.55
2024-02-22T03:33:00.109Z,6.28
2024-02-22T03:35:28.554Z,8.98
2024-02-22T03:37:57.207Z,5.68
2024-02-22T03:40:25.976Z,4.53
2024-02-22T03:42:54.056Z,7.53
2024-02-22T03:45:23.075Z,3.80
2024-02-22T03:47:51.816Z,7.65
2024-02-22T03:50:23.062Z,4.15
2024-02-22T03:52:51.719Z,3.63
2024-02-22T03:55:19.738Z,7.13
2024-02-22T03:57:47.868Z,4.60
2024-02-22T04:00:17.809Z,5.68
2024-02-22T04:02:49.896Z,6.47
2024-02-22T04:05:18.545Z,3.20
2024-02-22T04:07:50.656Z,6.35
2024-02-22T04:10:19.156Z,4.32
2024-02-22T04:12:47.078Z,5.88
2024-02-22T04:15:15.258Z,6.40
2024-02-22T04:17:45.278Z,3.63
2024-02-22T04:20:14.891Z,4.53
2024-02-22T04:22:51.574Z,8.40
2024-02-22T04:25:21.653Z,7.10
2024-02-22T04:27:50.017Z,3.33
2024-02-22T04:30:18.425Z,4.97
2024-02-22T04:32:48.210Z,4.95
2024-02-22T04:35:16.812Z,5.20
2024-02-22T04:37:46.476Z,5.05
2024-02-22T04:40:18.594Z,2.45
2024-02-22T04:42:46.485Z,3.53
2024-02-22T04:45:15.164Z,6.18
2024-02-22T04:47:43.285Z,6.93
2024-02-22T04:50:12.317Z,5.20
2024-02-22T04:52:41.211Z,4.53
2024-02-22T04:55:10.381Z,4.80
2024-02-22T04:57:40.041Z,6.15
2024-02-22T05:00:11.973Z,4.53
2024-02-22T05:02:41.768Z,3.42
2024-02-22T05:05:12.015Z,4.05
2024-02-22T05:07:40.791Z,10.57
2024-02-22T05:10:09.735Z,5.07
2024-02-22T05:12:39.639Z,4.13
2024-02-22T05:15:11.652Z,6.30
2024-02-22T05:17:40.635Z,6.30
2024-02-22T05:20:12.058Z,3.35
2024-02-22T05:22:40.273Z,4.88
2024-02-22T05:25:10.612Z,5.68
2024-02-22T05:27:42.956Z,4.32
2024-02-22T05:30:12.119Z,9.27
2024-02-22T05:32:40.400Z,4.25
2024-02-22T05:35:12.213Z,6.18
2024-02-22T05:37:40.766Z,3.95
2024-02-22T05:40:10.357Z,4.95
2024-02-22T05:42:38.462Z,4.72
2024-02-22T05:45:09.755Z,8.05
2024-02-22T05:47:38.043Z,3.20
2024-02-22T05:50:06.973Z,5.00
2024-02-22T05:52:36.406Z,4.22
2024-02-22T05:55:05.060Z,5.45
2024-02-22T05:57:33.788Z,5.18
2024-02-22T06:00:02.281Z,5.82
2024-02-22T06:02:51.973Z,3.92
2024-02-22T06:05:27.764Z,4.28
2024-02-22T06:07:56.029Z,5.15
2024-02-22T06:10:24.620Z,4.35
2024-02-22T06:12:57.049Z,4.85
2024-02-22T06:15:28.562Z,6.25
2024-02-22T06:18:11.953Z,5.25
2024-02-22T06:20:49.382Z,6.45
2024-02-22T06:23:17.551Z,5.50
2024-02-22T06:25:46.122Z,8.13
2024-02-22T06:28:15.053Z,7.97
2024-02-22T06:30:43.387Z,4.22
2024-02-22T06:33:14.021Z,5.95
2024-02-22T06:35:42.796Z,5.90
2024-02-22T06:38:11.509Z,5.60
2024-02-22T06:40:50.195Z,4.95
2024-02-22T06:43:20.461Z,4.70
2024-02-22T06:45:49.395Z,5.78
2024-02-22T06:48:19.496Z,4.72
2024-02-22T06:50:48.434Z,6.28
2024-02-22T06:53:18.983Z,4.10
2024-02-22T06:55:47.655Z,4.30
2024-02-22T06:58:16.899Z,5.13
2024-02-22T07:00:45.204Z,4.75
2024-02-22T07:03:13.617Z,4.68
2024-02-22T07:05:44.755Z,7.35
2024-02-22T07:08:13.100Z,4.72
2024-02-22T07:10:41.474Z,3.10
2024-02-22T07:13:09.929Z,3.35
2024-02-22T07:15:38.136Z,5.88
2024-02-22T07:18:07.596Z,7.45
2024-02-22T07:20:35.819Z,12.23
2024-02-22T07:23:06.871Z,7.35
2024-02-22T07:25:36.228Z,4.20
2024-02-22T07:28:04.786Z,4.78
2024-02-22T07:30:34.339Z,5.35
2024-02-22T07:33:02.881Z,2.63
2024-02-22T07:35:31.891Z,6.70
2024-02-22T07:38:02.007Z,3.60
2024-02-22T07:40:33.009Z,4.95
2024-02-22T07:43:00.536Z,3.63
2024-02-22T07:45:29.824Z,5.25
2024-02-22T07:47:58.413Z,15.30
2024-02-22T07:50:28.476Z,11.38
2024-02-22T07:52:56.779Z,8.75
2024-02-22T07:55:26.072Z,7.50
2024-02-22T07:57:55.806Z,5.07
2024-02-22T08:00:24.155Z,3.78
2024-02-22T08:02:52.843Z,4.38
2024-02-22T08:05:21.104Z,4.30
2024-02-22T08:07:50.057Z,3.90
2024-02-22T08:10:18.786Z,3.88
2024-02-22T08:12:47.186Z,5.00
2024-02-22T08:15:17.422Z,5.30
2024-02-22T08:17:46.194Z,4.00
2024-02-22T08:20:16.354Z,4.28
2024-02-22T08:22:45.433Z,4.35
2024-02-22T08:25:16.785Z,5.70
2024-02-22T08:27:50.600Z,3.70
2024-02-22T08:30:29.114Z,3.10
2024-02-22T08:32:57.872Z,4.38
2024-02-22T08:35:28.004Z,4.47
2024-02-22T08:37:56.929Z,3.90
2024-02-22T08:40:38.045Z,4.07
2024-02-22T08:43:09.933Z,4.38
2024-02-22T08:45:40.052Z,2.92
2024-02-22T08:48:09.532Z,2.85
2024-02-22T08:50:38.230Z,2.75
2024-02-22T08:53:06.919Z,3.83
2024-02-22T08:55:35.352Z,6.53
2024-02-22T08:58:03.743Z,3.80
2024-02-22T09:00:32.674Z,4.57
2024-02-22T09:03:02.779Z,4.00
2024-02-22T09:05:31.196Z,4.78
2024-02-22T09:08:01.154Z,5.35
2024-02-22T09:10:29.991Z,3.75
2024-02-22T09:12:58.673Z,6.95
2024-02-22T09:15:26.949Z,3.33
2024-02-22T09:17:55.127Z,3.60
2024-02-22T09:20:25.390Z,4.65
2024-02-22T09:22:53.800Z,3.42
2024-02-22T09:25:22.446Z,6.35
2024-02-22T09:27:53.656Z,4.22
2024-02-22T09:30:21.823Z,4.78
2024-02-22T09:32:52.446Z,3.25
2024-02-22T09:35:20.963Z,3.05
2024-02-22T09:37:51.102Z,3.47
2024-02-22T09:40:23.738Z,3.65
2024-02-22T09:42:52.544Z,4.15
2024-02-22T09:45:21.286Z,2.83
2024-02-22T09:47:49.740Z,3.20
2024-02-22T09:50:18.415Z,3.40
2024-02-22T09:52:47.249Z,4.90
2024-02-22T09:55:17.691Z,3.05
2024-02-22T09:57:45.936Z,3.22
2024-02-22T10:00:20.109Z,3.05
2024-02-22T10:02:49.231Z,3.22
2024-02-22T10:05:19.033Z,2.75
2024-02-22T10:07:48.601Z,2.90
2024-02-22T10:10:27.435Z,2.38
2024-02-22T10:12:56.715Z,3.60
2024-02-22T10:15:29.603Z,4.07
2024-02-22T10:18:00.016Z,3.13
2024-02-22T10:20:35.563Z,6.43
2024-02-22T10:23:08.913Z,3.08
2024-02-22T10:25:38.926Z,4.68
2024-02-22T10:28:09.720Z,2.55
2024-02-22T10:30:40.059Z,3.05
2024-02-22T10:33:10.890Z,2.38
2024-02-22T10:35:42.392Z,2.83
2024-02-22T10:38:12.745Z,3.50
2024-02-22T10:40:46.295Z,2.20
2024-02-22T10:43:14.369Z,3.60
2024-02-22T10:45:43.654Z,5.97
2024-02-22T10:48:15.108Z,3.45
2024-02-22T10:50:45.546Z,3.60
2024-02-22T10:53:15.477Z,6.88
2024-02-22T10:55:51.576Z,2.58
2024-02-22T10:58:23.481Z,2.70
2024-02-22T11:00:53.931Z,5.97
2024-02-22T11:03:23.013Z,2.33
2024-02-22T11:05:54.822Z,2.58
2024-02-22T11:08:23.928Z,2.72
2024-02-22T11:11:07.234Z,2.78
2024-02-22T11:14:02.975Z,3.85
2024-02-22T11:19:46.050Z,3.25
2024-02-22T11:22:17.884Z,2.10
2024-02-22T11:24:49.198Z,2.88
2024-02-22T11:27:20.147Z,2.72
2024-02-22T11:29:50.980Z,2.00
2024-02-22T11:32:22.724Z,2.70
2024-02-22T11:34:54.254Z,2.33
2024-02-22T11:37:23.117Z,2.03
2024-02-22T11:39:58.701Z,2.50
2024-02-22T11:42:30.445Z,2.38
2024-02-22T11:44:59.028Z,2.60
2024-02-22T11:47:28.471Z,2.67
2024-02-22T11:49:56.846Z,2.85
2024-02-22T11:52:25.788Z,8.63
2024-02-22T11:54:55.350Z,3.92
2024-02-22T11:57:26.700Z,4.50
2024-02-22T11:59:57.115Z,2.63
2024-02-22T12:02:28.886Z,4.50
2024-02-22T12:04:57.630Z,3.28
2024-02-22T12:07:26.594Z,1.67
2024-02-22T12:09:56.482Z,1.75
2024-02-22T12:12:25.710Z,1.45
2024-02-22T12:15:00.258Z,3.17
2024-02-22T12:17:29.481Z,2.65
2024-02-22T12:20:00.656Z,4.38
2024-02-22T12:22:31.080Z,2.85
2024-02-22T12:24:59.914Z,3.10
2024-02-22T12:27:28.768Z,2.50
2024-02-22T12:29:59.974Z,4.43
2024-02-22T12:32:29.147Z,2.72
2024-02-22T12:34:59.072Z,3.42
2024-02-22T12:37:28.145Z,4.53
2024-02-22T12:39:56.874Z,2.65
2024-02-22T12:42:25.033Z,3.00
2024-02-22T12:44:53.114Z,3.35
2024-02-22T12:47:22.956Z,2.53
2024-02-22T12:49:51.400Z,2.17
2024-02-22T12:52:19.778Z,2.58
2024-02-22T12:54:48.065Z,4.00
2024-02-22T12:57:16.217Z,2.20
2024-02-22T12:59:46.077Z,2.55
2024-02-22T13:02:14.224Z,2.42
2024-02-22T13:04:43.841Z,2.88
2024-02-22T13:07:14.814Z,2.60
2024-02-22T13:09:42.967Z,3.00
2024-02-22T13:12:11.255Z,3.28
2024-02-22T13:14:40.063Z,3.10
2024-02-22T13:17:10.034Z,4.65
2024-02-22T13:19:38.587Z,3.22
2024-02-22T13:22:09.804Z,3.55
2024-02-22T13:24:39.706Z,3.40
2024-02-22T13:27:11.660Z,4.00
2024-02-22T13:29:40.563Z,3.65
2024-02-22T13:32:08.965Z,4.32
2024-02-22T13:34:40.133Z,2.50
2024-02-22T13:37:10.270Z,2.55
2024-02-22T13:39:38.850Z,2.92
2024-02-22T13:42:07.897Z,3.58
2024-02-22T13:44:36.408Z,2.85
2024-02-22T13:47:07.588Z,2.35
2024-02-22T13:49:38.180Z,3.25
2024-02-22T13:52:13.830Z,2.33
2024-02-22T13:54:45.296Z,2.40
2024-02-22T13:57:16.255Z,2.42
2024-02-22T13:59:45.036Z,2.97
2024-02-22T14:02:16.534Z,2.67
2024-02-22T14:04:45.354Z,3.13
2024-02-22T14:07:14.242Z,2.97
2024-02-22T14:09:47.177Z,3.58
2024-02-22T14:14:46.311Z,3.20
2024-02-22T14:17:15.922Z,3.50
2024-02-22T14:19:46.412Z,3.65
2024-02-22T14:22:17.726Z,3.00
2024-02-22T14:24:47.948Z,3.47
2024-02-22T14:27:17.758Z,4.72
2024-02-22T14:29:51.058Z,2.22
2024-02-22T14:32:20.332Z,2.35
2024-02-22T14:34:52.199Z,2.60
2024-02-22T14:37:22.818Z,3.03
2024-02-22T14:39:54.856Z,1.85
2024-02-22T14:42:24.761Z,1.93
2024-02-22T14:44:53.305Z,2.38
2024-02-22T14:47:21.857Z,3.00
2024-02-22T14:49:50.529Z,3.35
2024-02-22T14:52:19.028Z,2.65
2024-02-22T14:54:47.580Z,2.58
2024-02-22T14:57:17.415Z,2.60
2024-02-22T14:59:46.419Z,2.97
2024-02-22T15:02:16.164Z,2.50
2024-02-22T15:04:45.667Z,2.15
2024-02-22T15:07:14.693Z,2.42
2024-02-22T15:09:43.815Z,2.13
2024-02-22T15:12:13.638Z,2.00
2024-02-22T15:14:45.361Z,3.38
2024-02-22T15:17:13.982Z,3.42
2024-02-22T15:19:42.387Z,2.85
2024-02-22T15:22:10.680Z,2.40
2024-02-22T15:24:39.321Z,3.65
2024-02-22T15:27:07.674Z,3.40
2024-02-22T15:29:37.679Z,6.47
2024-02-22T15:32:08.545Z,2.65
2024-02-22T15:34:37.768Z,4.82
2024-02-22T15:37:06.784Z,3.88
2024-02-22T15:39:40.571Z,3.38
2024-02-22T15:42:09.477Z,3.45
2024-02-22T15:44:38.039Z,3.20
2024-02-22T15:47:08.687Z,3.55
2024-02-22T15:49:36.950Z,3.75
2024-02-22T15:52:06.269Z,5.10
2024-02-22T15:54:36.459Z,3.90
2024-02-22T15:57:06.729Z,3.35
2024-02-22T15:59:35.769Z,3.90
2024-02-22T16:02:04.844Z,3.65
2024-02-22T16:04:37.052Z,3.33
2024-02-22T16:07:05.891Z,3.87
2024-02-22T16:09:34.127Z,4.75
2024-02-22T16:12:02.352Z,3.00
2024-02-22T16:14:30.837Z,3.30
2024-02-22T16:17:01.684Z,2.78
2024-02-22T16:19:30.295Z,3.30
2024-02-22T16:22:05.006Z,3.72
2024-02-22T16:24:34.971Z,3.42
2024-02-22T16:27:03.184Z,3.80
2024-02-22T16:29:32.350Z,5.80
2024-02-22T16:32:01.959Z,3.35
2024-02-22T16:34:31.206Z,5.35
2024-02-22T16:37:01.967Z,4.20
2024-02-22T16:39:35.135Z,4.43
2024-02-22T16:42:06.757Z,4.47
2024-02-22T16:44:39.843Z,5.43
2024-02-22T16:47:10.589Z,6.47
2024-02-22T16:49:40.511Z,6.43
2024-02-22T16:52:10.300Z,6.10
2024-02-22T16:54:42.458Z,6.88
2024-02-22T16:57:11.144Z,5.35
2024-02-22T16:59:40.079Z,6.00
2024-02-22T17:02:08.579Z,5.90
2024-02-22T17:04:36.952Z,8.90
2024-02-22T17:07:05.018Z,5.68
2024-02-22T17:09:34.496Z,8.63
2024-02-22T17:12:03.554Z,6.65
2024-02-22T17:14:32.125Z,4.93
2024-02-22T17:17:04.194Z,4.35
2024-02-22T17:19:32.627Z,4.93
2024-02-22T17:22:01.584Z,4.50
2024-02-22T17:24:31.867Z,9.55
2024-02-22T17:27:01.512Z,7.72
2024-02-22T17:29:29.970Z,7.35
2024-02-22T17:31:58.201Z,6.55
2024-02-22T17:34:27.113Z,5.68
2024-02-22T17:36:55.286Z,6.47
2024-02-22T17:39:24.265Z,6.38
2024-02-22T17:41:52.808Z,5.97
2024-02-22T17:44:24.769Z,6.45
2024-02-22T17:46:53.501Z,6.10
2024-02-22T17:49:21.959Z,5.93
2024-02-22T17:51:54.037Z,6.05
2024-02-22T17:54:23.322Z,5.25
2024-02-22T17:56:51.892Z,6.85
2024-02-22T17:59:20.377Z,7.35
2024-02-22T18:01:51.803Z,7.55
2024-02-22T18:04:23.490Z,7.80
2024-02-22T18:06:53.448Z,7.00
2024-02-22T18:09:22.689Z,10.88
2024-02-22T18:11:51.203Z,5.43
2024-02-22T18:14:19.786Z,7.88
2024-02-22T18:16:48.833Z,5.78
2024-02-22T18:19:21.569Z,8.88
2024-02-22T18:21:49.795Z,6.85
2024-02-22T18:24:20.300Z,7.07
2024-02-22T18:26:49.372Z,6.45
2024-02-22T18:29:18.668Z,6.82
2024-02-22T18:31:47.526Z,10.13
2024-02-22T18:34:20.619Z,9.25
2024-02-22T18:39:18.810Z,9.68
2024-02-22T18:41:48.587Z,6.90
2024-02-22T18:44:17.026Z,6.07
2024-02-22T18:46:47.264Z,7.07
2024-02-22T18:49:18.410Z,8.32
2024-02-22T18:51:47.795Z,7.75
2024-02-22T18:54:18.666Z,6.75
2024-02-22T18:56:46.929Z,6.75
2024-02-22T18:59:17.671Z,7.35
2024-02-22T19:01:49.158Z,6.88
2024-02-22T19:04:21.795Z,5.00
2024-02-22T19:06:50.728Z,5.82
2024-02-22T19:09:20.488Z,6.03
2024-02-22T19:11:49.604Z,8.43
2024-02-22T19:14:18.427Z,5.95
2024-02-22T19:16:47.016Z,7.13
2024-02-22T19:19:15.564Z,5.78
2024-02-22T19:21:44.639Z,4.35
2024-02-22T19:24:16.241Z,10.32
2024-02-22T19:26:52.544Z,5.43
2024-02-22T19:29:21.078Z,2.42
2024-02-22T19:31:55.871Z,1.83
2024-02-22T19:34:24.733Z,4.05
2024-02-22T19:36:57.363Z,3.85
2024-02-22T19:39:26.131Z,3.80
2024-02-22T19:42:00.670Z,3.03
2024-02-22T19:44:31.069Z,3.47
2024-02-22T19:47:09.086Z,3.80
2024-02-22T19:49:43.957Z,3.35
2024-02-22T19:52:28.505Z,3.35
2024-02-22T19:55:01.665Z,3.70
2024-02-22T19:57:35.606Z,2.97
2024-02-22T20:00:17.768Z,4.03
2024-02-22T20:03:01.103Z,2.38
2024-02-22T20:05:32.792Z,3.53
2024-02-22T20:08:05.322Z,2.30
2024-02-22T20:10:34.437Z,4.18
2024-02-22T20:13:10.893Z,1.80
2024-02-22T20:15:39.545Z,2.78
2024-02-22T20:18:13.527Z,1.83
2024-02-22T20:20:43.298Z,3.20
2024-02-22T20:23:12.282Z,2.53
2024-02-22T20:25:43.406Z,1.25
2024-02-22T20:28:16.236Z,2.63
2024-02-22T20:30:44.608Z,1.77
2024-02-22T20:33:14.940Z,2.15
2024-02-22T20:35:46.416Z,2.13
2024-02-22T20:38:15.737Z,1.67
2024-02-22T20:40:45.243Z,2.22
2024-02-22T20:43:16.026Z,2.42
2024-02-22T20:45:46.251Z,2.40
2024-02-22T20:48:14.934Z,2.10
2024-02-22T20:50:43.756Z,1.33
2024-02-22T20:53:14.726Z,2.65
2024-02-22T20:55:43.383Z,2.55
2024-02-22T20:58:13.597Z,1.17
2024-02-22T21:00:42.349Z,3.65
2024-02-22T21:03:13.516Z,1.88
2024-02-22T21:05:42.636Z,1.85
2024-02-22T21:08:14.067Z,3.65
2024-02-22T21:10:42.984Z,2.15
2024-02-22T21:13:14.594Z,1.73
2024-02-22T21:15:43.671Z,1.40
2024-02-22T21:18:14.214Z,2.38
2024-02-22T21:20:42.765Z,3.70
2024-02-22T21:23:11.478Z,1.45
2024-02-22T21:25:39.798Z,2.33
2024-02-22T21:28:08.378Z,1.52
2024-02-22T21:30:40.313Z,1.65
2024-02-22T21:33:09.048Z,3.17
2024-02-22T21:35:39.585Z,1.88
2024-02-22T21:38:09.120Z,2.03
2024-02-22T21:40:38.460Z,2.50
2024-02-22T21:43:09.185Z,2.88
2024-02-22T21:45:38.040Z,1.20
2024-02-22T21:48:11.250Z,1.80
2024-02-22T21:50:41.945Z,2.00
2024-02-22T21:53:27.674Z,1.52
2024-02-22T21:56:02.373Z,1.92
2024-02-22T21:58:35.765Z,1.90
2024-02-22T22:01:11.474Z,2.10
2024-02-22T22:03:41.988Z,3.38
2024-02-22T22:06:12.112Z,2.80
2024-02-22T22:08:43.519Z,2.85
2024-02-22T22:11:13.275Z,2.80
2024-02-22T22:13:45.150Z,1.45
2024-02-22T22:16:13.501Z,1.30
2024-02-22T22:18:44.999Z,1.52
2024-02-22T22:21:21.501Z,1.85
2024-02-22T22:23:56.989Z,2.15
2024-02-22T22:26:25.930Z,2.08
2024-02-22T22:28:54.560Z,1.92
2024-02-22T22:31:25.947Z,3.58
2024-02-22T22:33:56.221Z,2.10
2024-02-22T22:36:26.192Z,2.08
2024-02-22T22:38:54.530Z,1.73
2024-02-22T22:41:23.092Z,1.60
2024-02-22T22:43:52.015Z,1.50
2024-02-22T22:46:21.023Z,1.20
2024-02-22T22:48:50.606Z,4.72
2024-02-22T22:51:18.746Z,1.40
2024-02-22T22:53:49.270Z,1.73
2024-02-22T22:56:18.178Z,1.42
2024-02-22T22:58:47.057Z,1.73
2024-02-22T23:01:18.446Z,1.45
2024-02-22T23:03:48.132Z,1.45
2024-02-22T23:06:17.887Z,1.48
2024-02-22T23:08:47.202Z,1.35
2024-02-22T23:11:21.898Z,1.00
2024-02-22T23:13:51.383Z,1.88
2024-02-22T23:16:20.290Z,0.77
2024-02-22T23:18:48.813Z,1.20
2024-02-22T23:21:19.375Z,1.45
2024-02-22T23:23:48.373Z,2.78
2024-02-22T23:26:18.544Z,1.45
2024-02-22T23:28:47.280Z,0.93
2024-02-22T23:31:17.009Z,0.85
2024-02-22T23:33:46.276Z,1.05
2024-02-22T23:36:13.908Z,0.80
2024-02-22T23:38:42.493Z,0.70
2024-02-22T23:41:22.107Z,1.27
2024-02-22T23:44:00.917Z,1.33
2024-02-22T23:46:30.471Z,0.95
2024-02-22T23:48:59.020Z,0.80
2024-02-22T23:51:27.502Z,0.82
2024-02-22T23:53:59.885Z,0.77
2024-02-22T23:56:28.484Z,1.02
2024-02-22T23:58:59.421Z,1.13
